createdAt,value
2017-04-11T00:00:39.531Z,57.30
2017-04-11T00:01:44.070Z,60.40
2017-04-11T00:02:48.017Z,58.20
2017-04-11T00:03:51.690Z,59.90
2017-04-11T00:04:55.443Z,58.70
2017-04-11T00:05:59.396Z,58.90
2017-04-11T00:07:03.090Z,60.10
2017-04-11T00:08:07.295Z,55.30
2017-04-11T00:09:11.188Z,56.80
2017-04-11T00:10:15.705Z,57.70
2017-04-11T00:11:19.551Z,58.20
2017-04-11T00:12:23.605Z,58.70
2017-04-11T00:13:27.544Z,59.80
2017-04-11T00:14:31.489Z,59.30
2017-04-11T00:15:35.304Z,58.90
2017-04-11T00:16:39.022Z,60.30
2017-04-11T00:17:43.440Z,57.50
2017-04-11T00:18:47.468Z,59.20
2017-04-11T00:19:51.281Z,57.00
2017-04-11T00:20:55.048Z,58.20
2017-04-11T00:21:58.874Z,57.00
2017-04-11T00:23:02.629Z,60.80
2017-04-11T00:24:06.121Z,57.80
2017-04-11T00:25:10.131Z,58.00
2017-04-11T00:26:13.853Z,57.60
2017-04-11T00:27:17.831Z,57.90
2017-04-11T00:28:21.842Z,58.90
2017-04-11T00:29:26.487Z,60.80
2017-04-11T00:30:30.694Z,58.70
2017-04-11T00:31:34.651Z,59.40
2017-04-11T00:32:38.501Z,60.80
2017-04-11T00:33:41.913Z,59.70
2017-04-11T00:34:45.812Z,58.40
2017-04-11T00:35:49.590Z,57.60
2017-04-11T00:36:53.592Z,56.50
2017-04-11T00:37:57.333Z,58.30
2017-04-11T00:39:01.224Z,57.70
2017-04-11T00:40:05.202Z,56.10
2017-04-11T00:41:08.904Z,56.40
2017-04-11T00:42:12.621Z,54.30
2017-04-11T00:43:16.749Z,59.80
2017-04-11T00:44:20.506Z,58.90
2017-04-11T00:45:24.113Z,55.80
2017-04-11T00:46:27.914Z,60.60
2017-04-11T00:47:31.522Z,57.80
2017-04-11T00:48:35.619Z,56.00
2017-04-11T00:49:39.435Z,54.30
2017-04-11T00:50:43.129Z,54.90
2017-04-11T00:51:47.740Z,51.90
2017-04-11T00:52:51.848Z,52.10
2017-04-11T00:53:55.567Z,57.10
2017-04-11T00:54:59.605Z,58.20
2017-04-11T00:56:03.307Z,55.70
2017-04-11T00:57:07.199Z,54.70
2017-04-11T00:58:10.674Z,56.20
2017-04-11T00:59:15.278Z,56.30
2017-04-11T01:00:19.282Z,57.00
2017-04-11T01:01:23.513Z,55.70
2017-04-11T01:02:27.662Z,56.30
2017-04-11T01:03:31.578Z,57.20
2017-04-11T01:04:35.465Z,58.80
2017-04-11T01:05:39.430Z,56.10
2017-04-11T01:06:43.382Z,56.90
2017-04-11T01:07:47.124Z,57.90
2017-04-11T01:08:51.370Z,59.50
2017-04-11T01:09:55.180Z,60.00
2017-04-11T01:10:59.865Z,57.50
2017-04-11T01:12:03.950Z,56.80
2017-04-11T01:13:08.186Z,59.00
2017-04-11T01:14:12.006Z,58.60
2017-04-11T01:15:16.176Z,57.80
2017-04-11T01:16:19.864Z,58.30
2017-04-11T01:17:24.003Z,60.50
2017-04-11T01:18:27.841Z,60.00
2017-04-11T01:19:31.677Z,57.80
2017-04-11T01:20:35.666Z,58.50
2017-04-11T01:21:39.401Z,58.30
2017-04-11T01:22:43.553Z,60.60
2017-04-11T01:23:47.440Z,58.00
2017-04-11T01:24:51.201Z,58.50
2017-04-11T01:25:55.533Z,57.90
2017-04-11T01:26:59.271Z,57.20
2017-04-11T01:28:03.511Z,56.50
2017-04-11T01:29:07.863Z,60.80
2017-04-11T01:30:12.018Z,57.80
2017-04-11T01:31:16.716Z,56.70
2017-04-11T01:32:20.433Z,56.90
2017-04-11T01:33:24.693Z,56.10
2017-04-11T01:34:28.767Z,56.70
2017-04-11T01:35:32.627Z,56.60
2017-04-11T01:36:36.315Z,59.40
2017-04-11T01:37:40.364Z,56.50
2017-04-11T01:38:44.497Z,56.90
2017-04-11T01:39:48.437Z,56.70
2017-04-11T01:40:52.394Z,60.20
2017-04-11T01:41:56.105Z,58.90
2017-04-11T01:42:59.606Z,56.90
2017-04-11T01:44:04.527Z,59.90
2017-04-11T01:45:08.081Z,56.10
2017-04-11T01:46:11.707Z,56.30
2017-04-11T01:47:15.382Z,55.40
2017-04-11T01:48:19.383Z,56.30
2017-04-11T01:49:23.049Z,56.30
2017-04-11T01:50:26.769Z,57.00
2017-04-11T01:51:30.607Z,56.30
2017-04-11T01:52:34.096Z,55.50
2017-04-11T01:53:38.052Z,56.90
2017-04-11T01:54:41.848Z,56.60
2017-04-11T01:55:45.913Z,56.10
2017-04-11T01:56:49.725Z,55.90
2017-04-11T01:57:53.579Z,55.40
2017-04-11T01:58:57.630Z,55.80
2017-04-11T02:00:01.470Z,56.40
2017-04-11T02:01:05.656Z,55.50
2017-04-11T02:02:09.727Z,55.50
2017-04-11T02:03:14.654Z,56.20
2017-04-11T02:04:18.263Z,56.10
2017-04-11T02:05:22.584Z,55.60
2017-04-11T02:06:26.346Z,56.30
2017-04-11T02:07:30.072Z,55.00
2017-04-11T02:08:34.025Z,54.40
2017-04-11T02:09:37.673Z,54.90
2017-04-11T02:10:41.682Z,55.90
2017-04-11T02:11:46.471Z,54.80
2017-04-11T02:12:50.446Z,54.80
2017-04-11T02:13:53.926Z,54.50
2017-04-11T02:14:57.625Z,54.80
2017-04-11T02:16:01.675Z,56.50
2017-04-11T02:17:06.251Z,55.10
2017-04-11T02:18:09.758Z,54.70
2017-04-11T02:19:13.760Z,54.90
2017-04-11T02:20:17.428Z,54.10
2017-04-11T02:21:20.903Z,55.80
2017-04-11T02:22:24.744Z,57.50
2017-04-11T02:23:28.640Z,56.80
2017-04-11T02:24:32.694Z,56.10
2017-04-11T02:25:36.733Z,56.10
2017-04-11T02:26:40.600Z,56.40
2017-04-11T02:27:44.287Z,56.20
2017-04-11T02:28:49.366Z,55.30
2017-04-11T02:29:53.145Z,56.40
2017-04-11T02:30:57.421Z,55.90
2017-04-11T02:32:01.537Z,57.40
2017-04-11T02:33:05.382Z,56.40
2017-04-11T02:34:09.196Z,56.00
2017-04-11T02:35:12.922Z,56.00
2017-04-11T02:36:16.889Z,56.40
2017-04-11T02:37:21.022Z,58.40
2017-04-11T02:38:24.894Z,57.60
2017-04-11T02:39:28.213Z,56.40
2017-04-11T02:40:31.979Z,57.40
2017-04-11T02:41:36.830Z,57.20
2017-04-11T02:42:40.749Z,56.70
2017-04-11T02:43:44.696Z,57.10
2017-04-11T02:44:48.171Z,56.70
2017-04-11T02:45:52.163Z,57.10
2017-04-11T02:46:55.997Z,57.00
2017-04-11T02:47:59.913Z,57.20
2017-04-11T02:49:04.469Z,57.60
2017-04-11T02:50:07.977Z,57.80
2017-04-11T02:51:12.215Z,58.70
2017-04-11T02:52:16.998Z,58.70
2017-04-11T02:53:21.086Z,58.40
2017-04-11T02:54:24.956Z,57.90
2017-04-11T02:55:28.920Z,60.80
2017-04-11T02:56:32.831Z,61.20
2017-04-11T02:57:36.645Z,60.60
2017-04-11T02:58:40.389Z,60.30
2017-04-11T02:59:43.950Z,61.40
2017-04-11T03:00:47.813Z,62.60
2017-04-11T03:01:51.596Z,62.90
2017-04-11T03:02:55.466Z,63.20
2017-04-11T03:03:59.515Z,62.90
2017-04-11T03:05:04.059Z,63.70
2017-04-11T03:06:08.062Z,64.80
2017-04-11T03:07:12.065Z,64.60
2017-04-11T03:08:15.946Z,63.70
2017-04-11T03:09:19.977Z,65.40
2017-04-11T03:10:23.990Z,65.40
2017-04-11T03:11:27.759Z,64.90
2017-04-11T03:12:32.483Z,65.50
2017-04-11T03:13:36.312Z,65.90
2017-04-11T03:14:40.518Z,64.70
2017-04-11T03:15:44.593Z,66.50
2017-04-11T03:16:48.180Z,67.30
2017-04-11T03:17:52.805Z,67.10
2017-04-11T03:18:56.479Z,65.70
2017-04-11T03:20:00.637Z,66.20
2017-04-11T03:21:04.570Z,66.00
2017-04-11T03:22:08.497Z,67.50
2017-04-11T03:23:13.283Z,67.10
2017-04-11T03:24:17.319Z,67.50
2017-04-11T03:25:21.306Z,67.90
2017-04-11T03:26:25.184Z,67.40
2017-04-11T03:27:29.172Z,66.70
2017-04-11T03:28:33.227Z,67.20
2017-04-11T03:29:37.095Z,66.70
2017-04-11T03:30:41.290Z,68.60
2017-04-11T03:31:44.923Z,68.80
2017-04-11T03:32:48.140Z,69.20
2017-04-11T03:33:52.098Z,69.40
2017-04-11T03:34:56.086Z,70.20
2017-04-11T03:36:00.032Z,70.20
2017-04-11T03:37:04.129Z,70.20
2017-04-11T03:38:07.861Z,67.50
2017-04-11T03:39:11.788Z,68.80
2017-04-11T03:40:15.746Z,68.10
2017-04-11T03:41:20.373Z,71.10
2017-04-11T03:42:25.133Z,71.80
2017-04-11T03:43:28.891Z,72.10
2017-04-11T03:44:33.028Z,73.30
2017-04-11T03:45:36.682Z,73.20
2017-04-11T03:46:40.481Z,73.90
2017-04-11T03:47:44.401Z,73.20
2017-04-11T03:48:48.381Z,73.60
2017-04-11T03:49:52.582Z,75.30
2017-04-11T03:50:56.776Z,75.20
2017-04-11T03:52:00.474Z,75.80
2017-04-11T03:53:04.495Z,75.50
2017-04-11T03:54:08.559Z,75.60
2017-04-11T03:55:12.544Z,75.60
2017-04-11T03:56:16.382Z,74.80
2017-04-11T03:57:20.143Z,75.60
2017-04-11T03:58:25.020Z,75.60
2017-04-11T03:59:28.853Z,75.00
2017-04-11T04:00:33.618Z,76.50
2017-04-11T04:01:37.622Z,74.60
2017-04-11T04:02:41.760Z,73.60
2017-04-11T04:03:45.787Z,75.40
2017-04-11T04:04:49.935Z,76.80
2017-04-11T04:05:53.517Z,76.40
2017-04-11T04:06:57.469Z,77.00
2017-04-11T04:08:01.381Z,76.70
2017-04-11T04:09:05.402Z,76.20
2017-04-11T04:10:09.215Z,75.00
2017-04-11T04:11:13.082Z,77.00
2017-04-11T04:12:17.050Z,77.10
2017-04-11T04:13:22.267Z,76.80
2017-04-11T04:14:25.801Z,77.80
2017-04-11T04:15:29.552Z,78.00
2017-04-11T04:16:34.029Z,78.10
2017-04-11T04:17:37.999Z,78.70
2017-04-11T04:18:42.288Z,78.60
2017-04-11T04:19:47.266Z,78.80
2017-04-11T04:20:51.280Z,78.80
2017-04-11T04:21:55.261Z,78.90
2017-04-11T04:22:59.416Z,76.80
2017-04-11T04:24:04.513Z,79.10
2017-04-11T04:25:08.920Z,78.70
2017-04-11T04:26:12.583Z,79.20
2017-04-11T04:27:16.523Z,79.30
2017-04-11T04:28:20.390Z,77.20
2017-04-11T04:29:24.127Z,78.20
2017-04-11T04:30:28.233Z,77.60
2017-04-11T04:31:32.060Z,80.20
2017-04-11T04:32:35.992Z,81.30
2017-04-11T04:33:39.794Z,81.90
2017-04-11T04:34:43.991Z,82.90
2017-04-11T04:35:47.615Z,83.10
2017-04-11T04:36:51.326Z,82.70
2017-04-11T04:37:55.287Z,82.60
2017-04-11T04:38:58.874Z,83.20
2017-04-11T04:40:02.617Z,83.20
2017-04-11T04:41:06.597Z,82.50
2017-04-11T04:42:10.659Z,81.80
2017-04-11T04:43:14.472Z,79.70
2017-04-11T04:44:18.086Z,81.00
2017-04-11T04:45:23.176Z,79.80
2017-04-11T04:46:26.955Z,80.90
2017-04-11T04:47:30.811Z,81.90
2017-04-11T04:48:34.493Z,79.60
2017-04-11T04:49:38.297Z,81.70
2017-04-11T04:50:41.852Z,82.40
2017-04-11T04:51:46.041Z,82.10
2017-04-11T04:52:49.742Z,81.40
2017-04-11T04:53:53.734Z,81.50
2017-04-11T04:54:57.300Z,80.20
2017-04-11T04:56:01.225Z,80.70
2017-04-11T04:57:05.092Z,79.90
2017-04-11T04:58:09.080Z,80.00
2017-04-11T04:59:12.576Z,79.70
2017-04-11T05:00:16.322Z,79.40
2017-04-11T05:01:20.186Z,79.40
2017-04-11T05:02:24.236Z,79.30
2017-04-11T05:03:27.981Z,79.50
2017-04-11T05:04:31.471Z,83.10
2017-04-11T05:05:35.285Z,82.40
2017-04-11T05:06:39.375Z,81.00
2017-04-11T05:07:43.089Z,81.30
2017-04-11T05:08:46.986Z,82.20
2017-04-11T05:09:50.887Z,82.80
2017-04-11T05:10:54.510Z,83.60
2017-04-11T05:11:58.495Z,85.10
2017-04-11T05:13:02.428Z,85.70
2017-04-11T05:14:07.429Z,86.40
2017-04-11T05:15:11.128Z,88.80
2017-04-11T05:16:14.943Z,87.20
2017-04-11T05:17:19.020Z,86.40
2017-04-11T05:18:23.079Z,87.10
2017-04-11T05:19:27.382Z,87.40
2017-04-11T05:20:30.897Z,88.30
2017-04-11T05:21:34.594Z,87.90
2017-04-11T05:22:38.586Z,87.40
2017-04-11T05:23:42.464Z,87.60
2017-04-11T05:24:46.112Z,88.20
2017-04-11T05:25:50.126Z,87.70
2017-04-11T05:26:53.920Z,88.40
2017-04-11T05:27:57.941Z,88.20
2017-04-11T05:29:01.534Z,88.40
2017-04-11T05:30:06.090Z,89.30
2017-04-11T05:31:09.610Z,87.90
2017-04-11T05:32:13.156Z,90.40
2017-04-11T05:33:17.870Z,90.30
2017-04-11T05:34:21.705Z,88.20
2017-04-11T05:35:25.385Z,85.50
2017-04-11T05:36:29.273Z,85.60
2017-04-11T05:37:33.328Z,85.80
2017-04-11T05:38:37.015Z,86.10
2017-04-11T05:39:41.019Z,85.30
2017-04-11T05:40:44.856Z,83.60
2017-04-11T05:41:48.742Z,85.30
2017-04-11T05:42:52.683Z,84.90
2017-04-11T05:43:56.431Z,85.30
2017-04-11T05:45:01.086Z,84.90
2017-04-11T05:46:04.896Z,83.90
2017-04-11T05:47:08.869Z,81.30
2017-04-11T05:48:12.752Z,84.60
2017-04-11T05:49:16.576Z,83.60
2017-04-11T05:50:20.608Z,82.40
2017-04-11T05:51:24.544Z,82.70
2017-04-11T05:52:28.439Z,83.70
2017-04-11T05:53:32.427Z,84.20
2017-04-11T05:54:36.195Z,85.30
2017-04-11T05:55:39.943Z,85.40
2017-04-11T05:56:43.738Z,86.00
2017-04-11T05:57:47.530Z,84.10
2017-04-11T05:58:51.353Z,86.20
2017-04-11T05:59:55.371Z,85.70
2017-04-11T06:00:59.039Z,85.60
2017-04-11T06:02:03.040Z,85.70
2017-04-11T06:03:06.856Z,86.60
2017-04-11T06:04:10.509Z,87.10
2017-04-11T06:05:14.745Z,86.60
2017-04-11T06:06:18.499Z,87.30
2017-04-11T06:07:23.450Z,87.20
2017-04-11T06:08:27.421Z,87.50
2017-04-11T06:09:31.202Z,87.80
2017-04-11T06:10:35.415Z,88.00
2017-04-11T06:11:38.976Z,87.70
2017-04-11T06:12:42.756Z,87.50
2017-04-11T06:13:46.664Z,87.80
2017-04-11T06:14:50.784Z,87.50
2017-04-11T06:15:54.927Z,87.40
2017-04-11T06:16:59.051Z,86.60
2017-04-11T06:18:03.147Z,86.70
2017-04-11T06:19:06.553Z,88.30
2017-04-11T06:20:10.359Z,88.70
2017-04-11T06:21:14.004Z,89.00
2017-04-11T06:22:17.583Z,89.00
2017-04-11T06:23:22.358Z,89.10
2017-04-11T06:24:26.328Z,89.20
2017-04-11T06:25:30.259Z,87.70
2017-04-11T06:26:34.046Z,85.10
2017-04-11T06:27:38.126Z,90.10
2017-04-11T06:28:41.828Z,90.50
2017-04-11T06:29:45.517Z,90.20
2017-04-11T06:30:49.093Z,88.20
2017-04-11T06:31:52.799Z,87.90
2017-04-11T06:32:56.755Z,87.20
2017-04-11T06:34:00.769Z,87.30
2017-04-11T06:35:04.420Z,88.10
2017-04-11T06:36:08.961Z,90.10
2017-04-11T06:37:13.077Z,90.20
2017-04-11T06:38:16.930Z,90.40
2017-04-11T06:39:20.530Z,90.60
2017-04-11T06:40:24.436Z,90.60
2017-04-11T06:41:28.271Z,90.90
2017-04-11T06:42:32.664Z,90.30
2017-04-11T06:43:36.609Z,90.40
2017-04-11T06:44:40.569Z,90.30
2017-04-11T06:45:44.206Z,89.50
2017-04-11T06:46:47.876Z,90.00
2017-04-11T06:47:51.560Z,90.00
2017-04-11T06:48:55.655Z,90.00
2017-04-11T06:50:00.068Z,90.10
2017-04-11T06:51:03.838Z,90.20
2017-04-11T06:52:07.720Z,90.30
2017-04-11T06:53:11.852Z,90.80
2017-04-11T06:54:15.734Z,91.30
2017-04-11T06:55:18.842Z,90.80
2017-04-11T06:56:22.986Z,90.40
2017-04-11T06:57:26.501Z,90.80
2017-04-11T06:58:31.238Z,90.10
2017-04-11T06:59:35.150Z,90.10
2017-04-11T07:00:38.278Z,89.50
2017-04-11T07:01:42.525Z,88.70
2017-04-11T07:02:54.922Z,89.50
2017-04-11T07:03:58.669Z,88.60
2017-04-11T07:05:02.613Z,89.10
2017-04-11T07:06:06.596Z,89.60
2017-04-11T07:07:10.425Z,89.10
2017-04-11T07:08:14.202Z,89.30
2017-04-11T07:09:18.214Z,89.70
2017-04-11T07:10:22.026Z,89.80
2017-04-11T07:11:26.025Z,89.70
2017-04-11T07:12:29.770Z,90.20
2017-04-11T07:13:33.266Z,90.10
2017-04-11T07:14:37.128Z,90.10
2017-04-11T07:15:41.638Z,89.60
2017-04-11T07:16:45.779Z,89.40
2017-04-11T07:17:49.701Z,89.30
2017-04-11T07:18:53.404Z,89.30
2017-04-11T07:19:56.882Z,89.60
2017-04-11T07:21:00.780Z,90.10
2017-04-11T07:22:04.629Z,90.80
2017-04-11T07:23:08.352Z,91.00
2017-04-11T07:24:13.090Z,91.00
2017-04-11T07:25:16.990Z,91.50
2017-04-11T07:26:20.750Z,92.20
2017-04-11T07:27:24.618Z,92.00
2017-04-11T07:28:28.562Z,91.70
2017-04-11T07:29:32.201Z,92.00
2017-04-11T07:30:36.684Z,92.10
2017-04-11T07:31:40.377Z,92.00
2017-04-11T07:32:43.987Z,92.00
2017-04-11T07:33:48.022Z,91.80
2017-04-11T07:34:51.536Z,92.00
2017-04-11T07:35:55.647Z,92.00
2017-04-11T07:36:59.801Z,91.60
2017-04-11T07:38:03.793Z,91.70
2017-04-11T07:39:10.210Z,91.70
2017-04-11T07:40:14.084Z,91.60
2017-04-11T07:41:18.570Z,92.00
2017-04-11T07:42:22.445Z,92.30
2017-04-11T07:43:26.550Z,92.40
2017-04-11T07:44:30.630Z,92.50
2017-04-11T07:45:34.277Z,92.80
2017-04-11T07:46:38.047Z,92.80
2017-04-11T07:47:41.798Z,92.60
2017-04-11T07:48:45.212Z,93.60
2017-04-11T07:49:49.299Z,94.40
2017-04-11T07:50:54.014Z,93.60
2017-04-11T07:51:58.013Z,93.30
2017-04-11T07:53:01.923Z,93.10
2017-04-11T07:54:05.791Z,93.00
2017-04-11T07:55:09.550Z,93.00
2017-04-11T07:56:13.268Z,93.10
2017-04-11T07:57:17.257Z,93.10
2017-04-11T07:58:21.446Z,93.00
2017-04-11T07:59:25.455Z,93.20
2017-04-11T08:00:29.166Z,93.20
2017-04-11T08:01:32.813Z,93.50
2017-04-11T08:02:36.931Z,93.70
2017-04-11T08:03:40.751Z,93.80
2017-04-11T08:04:44.433Z,94.00
2017-04-11T08:05:48.016Z,94.30
2017-04-11T08:06:51.682Z,94.70
2017-04-11T08:07:55.716Z,95.20
2017-04-11T08:08:59.409Z,95.60
2017-04-11T08:10:02.949Z,95.60
2017-04-11T08:11:07.441Z,96.20
2017-04-11T08:12:11.165Z,96.10
2017-04-11T08:13:15.035Z,95.30
2017-04-11T08:14:18.889Z,95.10
2017-04-11T08:15:22.692Z,94.70
2017-04-11T08:16:27.034Z,94.90
2017-04-11T08:17:30.927Z,95.10
2017-04-11T08:18:34.536Z,95.50
2017-04-11T08:19:38.481Z,95.90
2017-04-11T08:20:42.590Z,96.10
2017-04-11T08:21:46.468Z,96.20
2017-04-11T08:22:50.264Z,96.20
2017-04-11T08:23:54.088Z,96.00
2017-04-11T08:24:57.732Z,96.10
2017-04-11T08:26:01.542Z,96.00
2017-04-11T08:27:05.596Z,96.00
2017-04-11T08:28:09.277Z,96.00
2017-04-11T08:29:13.314Z,96.10
2017-04-11T08:30:17.213Z,96.40
2017-04-11T08:31:21.138Z,96.50
2017-04-11T08:32:25.205Z,96.60
2017-04-11T08:33:28.791Z,96.80
2017-04-11T08:34:32.666Z,97.00
2017-04-11T08:35:36.481Z,97.00
2017-04-11T08:36:40.551Z,99.30
2017-04-11T08:37:44.548Z,99.40
2017-04-11T08:38:48.460Z,99.00
2017-04-11T08:39:52.395Z,99.00
2017-04-11T08:40:56.271Z,98.70
2017-04-11T08:42:00.809Z,97.60
2017-04-11T08:43:04.799Z,97.30
2017-04-11T08:44:08.480Z,98.20
2017-04-11T08:45:12.448Z,97.80
2017-04-11T08:46:16.305Z,97.80
2017-04-11T08:47:19.877Z,97.60
2017-04-11T08:48:23.274Z,97.10
2017-04-11T08:49:27.598Z,97.40
2017-04-11T08:50:31.866Z,97.60
2017-04-11T08:51:35.893Z,97.60
2017-04-11T08:52:39.840Z,98.00
2017-04-11T08:53:43.731Z,98.20
2017-04-11T08:54:47.695Z,98.70
2017-04-11T08:55:51.420Z,98.90
2017-04-11T08:56:55.491Z,99.10
2017-04-11T08:57:59.435Z,98.90
2017-04-11T08:59:03.411Z,99.30
2017-04-11T09:00:07.215Z,99.30
2017-04-11T09:01:11.227Z,99.30
2017-04-11T09:02:14.959Z,99.20
2017-04-11T09:03:18.820Z,99.00
2017-04-11T09:04:22.584Z,99.00
2017-04-11T09:05:26.466Z,99.00
2017-04-11T09:06:30.217Z,98.90
2017-04-11T09:07:34.224Z,98.90
2017-04-11T09:08:38.018Z,99.30
2017-04-11T09:09:41.539Z,98.90
2017-04-11T09:10:45.006Z,99.00
2017-04-11T09:11:49.074Z,99.20
2017-04-11T09:12:52.837Z,99.10
2017-04-11T09:13:56.686Z,98.70
2017-04-11T09:15:00.592Z,99.20
2017-04-11T09:16:04.288Z,98.70
2017-04-11T09:17:09.183Z,98.80
2017-04-11T09:18:12.735Z,99.60
2017-04-11T09:19:16.566Z,99.50
2017-04-11T09:20:20.488Z,99.90
2017-04-11T09:21:24.980Z,99.90
2017-04-11T09:22:28.888Z,99.90
2017-04-11T09:23:32.562Z,99.90
2017-04-11T09:24:36.209Z,99.90
2017-04-11T09:25:40.335Z,99.90
2017-04-11T09:26:44.002Z,99.90
2017-04-11T09:27:47.987Z,99.90
2017-04-11T09:28:51.783Z,99.90
2017-04-11T09:29:55.735Z,99.90
2017-04-11T09:30:59.744Z,99.90
2017-04-11T09:32:03.532Z,99.90
2017-04-11T09:33:06.837Z,99.90
2017-04-11T09:34:10.849Z,99.90
2017-04-11T09:35:14.828Z,99.90
2017-04-11T09:36:19.579Z,99.90
2017-04-11T09:37:23.307Z,99.90
2017-04-11T09:38:27.189Z,99.90
2017-04-11T09:39:31.205Z,99.90
2017-04-11T09:40:35.162Z,99.90
2017-04-11T09:41:38.992Z,99.90
2017-04-11T09:42:43.160Z,99.90
2017-04-11T09:43:47.409Z,99.90
2017-04-11T09:44:51.413Z,99.90
2017-04-11T09:45:55.465Z,99.90
2017-04-11T09:46:59.659Z,99.90
2017-04-11T09:48:03.477Z,99.90
2017-04-11T09:49:07.173Z,99.90
2017-04-11T09:50:11.333Z,99.90
2017-04-11T09:51:15.984Z,99.90
2017-04-11T09:52:19.659Z,99.90
2017-04-11T09:53:23.191Z,99.90
2017-04-11T09:54:27.098Z,99.90
2017-04-11T09:55:30.507Z,99.90
2017-04-11T09:56:34.085Z,99.90
2017-04-11T09:57:37.864Z,99.90
2017-04-11T09:58:41.759Z,99.90
2017-04-11T09:59:45.819Z,99.90
2017-04-11T10:00:49.368Z,99.90
2017-04-11T10:01:53.500Z,99.90
2017-04-11T10:02:57.487Z,99.90
2017-04-11T10:04:01.324Z,99.90
2017-04-11T10:05:05.309Z,99.90
2017-04-11T10:06:09.048Z,99.90
2017-04-11T10:07:13.070Z,99.90
2017-04-11T10:08:16.997Z,99.90
2017-04-11T10:09:20.806Z,99.90
2017-04-11T10:10:24.725Z,99.90
2017-04-11T10:11:28.374Z,99.90
2017-04-11T10:12:32.150Z,99.90
2017-04-11T10:13:36.073Z,99.90
2017-04-11T10:14:39.934Z,99.90
2017-04-11T10:15:43.883Z,99.90
2017-04-11T10:16:48.699Z,99.90
2017-04-11T10:17:53.317Z,99.90
2017-04-11T10:18:57.352Z,99.90
2017-04-11T10:20:01.359Z,99.90
2017-04-11T10:21:06.134Z,99.90
2017-04-11T10:22:09.807Z,99.90
2017-04-11T10:23:14.438Z,99.90
2017-04-11T10:24:18.174Z,99.90
2017-04-11T10:25:22.136Z,99.90
2017-04-11T10:26:25.938Z,99.90
2017-04-11T10:27:29.726Z,99.90
2017-04-11T10:28:33.418Z,99.90
2017-04-11T10:29:37.080Z,99.90
2017-04-11T10:30:41.022Z,99.90
2017-04-11T10:31:45.149Z,99.90
2017-04-11T10:32:49.133Z,99.90
2017-04-11T10:33:53.130Z,99.90
2017-04-11T10:34:57.092Z,99.90
2017-04-11T10:36:01.075Z,99.90
2017-04-11T10:37:04.823Z,99.90
2017-04-11T10:38:08.642Z,99.90
2017-04-11T10:39:12.269Z,99.90
2017-04-11T10:40:16.061Z,99.90
2017-04-11T10:41:19.989Z,99.90
2017-04-11T10:42:23.879Z,99.90
2017-04-11T10:43:27.535Z,99.90
2017-04-11T10:44:31.593Z,99.90
2017-04-11T10:45:35.293Z,99.90
2017-04-11T10:46:39.146Z,99.90
2017-04-11T10:47:42.605Z,99.90
2017-04-11T10:48:46.371Z,99.90
2017-04-11T10:49:50.553Z,99.90
2017-04-11T10:50:54.535Z,99.90
2017-04-11T10:51:57.991Z,99.90
2017-04-11T10:53:01.652Z,99.90
2017-04-11T10:54:05.355Z,99.90
2017-04-11T10:55:09.355Z,99.90
2017-04-11T10:56:12.974Z,99.90
2017-04-11T10:57:17.481Z,99.90
2017-04-11T10:58:21.743Z,99.90
2017-04-11T10:59:25.726Z,99.90
2017-04-11T11:00:29.614Z,99.90
2017-04-11T11:01:33.502Z,99.90
2017-04-11T11:02:37.659Z,99.90
2017-04-11T11:03:41.795Z,99.90
2017-04-11T11:04:45.387Z,99.90
2017-04-11T11:05:48.905Z,99.90
2017-04-11T11:06:53.221Z,99.90
2017-04-11T11:07:57.077Z,99.90
2017-04-11T11:09:00.859Z,99.90
2017-04-11T11:10:04.725Z,99.90
2017-04-11T11:11:08.745Z,99.90
2017-04-11T11:12:12.266Z,99.90
2017-04-11T11:13:16.201Z,99.90
2017-04-11T11:14:20.236Z,99.90
2017-04-11T11:15:23.761Z,99.90
2017-04-11T11:16:27.301Z,99.90
2017-04-11T11:17:31.962Z,99.90
2017-04-11T11:18:36.665Z,99.90
2017-04-11T11:19:40.242Z,99.90
2017-04-11T11:20:43.921Z,99.90
2017-04-11T11:21:47.482Z,99.90
2017-04-11T11:22:51.273Z,99.90
2017-04-11T11:23:55.173Z,99.90
2017-04-11T11:24:59.065Z,99.90
2017-04-11T11:26:02.756Z,99.90
2017-04-11T11:27:06.096Z,99.90
2017-04-11T11:28:09.789Z,99.90
2017-04-11T11:29:13.570Z,99.90
2017-04-11T11:30:17.185Z,99.90
2017-04-11T11:31:21.227Z,99.90
2017-04-11T11:32:25.154Z,99.90
2017-04-11T11:33:29.035Z,99.90
2017-04-11T11:34:33.686Z,99.90
2017-04-11T11:35:37.759Z,99.90
2017-04-11T11:36:41.430Z,99.90
2017-04-11T11:37:45.177Z,99.90
2017-04-11T11:38:49.025Z,99.90
2017-04-11T11:39:52.850Z,99.90
2017-04-11T11:40:56.787Z,99.90
2017-04-11T11:42:00.609Z,99.90
2017-04-11T11:43:04.794Z,99.90
2017-04-11T11:44:08.611Z,99.90
2017-04-11T11:45:12.307Z,99.90
2017-04-11T11:46:16.729Z,99.90
2017-04-11T11:47:21.425Z,99.90
2017-04-11T11:48:25.159Z,99.90
2017-04-11T11:49:29.014Z,99.90
2017-04-11T11:50:33.229Z,99.90
2017-04-11T11:51:36.963Z,99.90
2017-04-11T11:52:40.406Z,99.90
2017-04-11T11:53:44.298Z,99.90
2017-04-11T11:54:48.780Z,99.90
2017-04-11T11:55:52.754Z,99.90
2017-04-11T11:56:56.578Z,99.90
2017-04-11T11:58:00.365Z,99.90
2017-04-11T11:59:04.413Z,99.90
2017-04-11T12:00:08.105Z,99.90
2017-04-11T12:01:11.976Z,99.90
2017-04-11T12:02:15.940Z,99.90
2017-04-11T12:03:20.001Z,99.90
2017-04-11T12:04:23.961Z,99.90
2017-04-11T12:05:27.635Z,99.90
2017-04-11T12:06:31.632Z,99.90
2017-04-11T12:07:35.319Z,99.90
2017-04-11T12:08:39.692Z,99.90
2017-04-11T12:09:43.461Z,99.90
2017-04-11T12:10:46.972Z,99.90
2017-04-11T12:11:50.857Z,99.90
2017-04-11T12:12:54.985Z,99.90
2017-04-11T12:13:59.079Z,99.90
2017-04-11T12:15:03.245Z,99.90
2017-04-11T12:16:08.182Z,99.90
2017-04-11T12:17:11.935Z,99.90
2017-04-11T12:18:15.664Z,99.90
2017-04-11T12:19:21.192Z,99.90
2017-04-11T12:20:25.039Z,99.90
2017-04-11T12:21:29.118Z,99.90
2017-04-11T12:22:32.924Z,99.90
2017-04-11T12:23:36.953Z,99.90
2017-04-11T12:24:41.179Z,99.90
2017-04-11T12:25:45.861Z,99.90
2017-04-11T12:26:49.950Z,99.90
2017-04-11T12:27:53.700Z,99.90
2017-04-11T12:28:57.289Z,99.90
2017-04-11T12:30:00.632Z,99.90
2017-04-11T12:31:04.164Z,99.90
2017-04-11T12:32:07.710Z,99.90
2017-04-11T12:33:11.432Z,99.90
2017-04-11T12:34:15.549Z,99.90
2017-04-11T12:35:19.084Z,99.90
2017-04-11T12:36:23.016Z,99.90
2017-04-11T12:37:26.988Z,99.90
2017-04-11T12:38:30.817Z,99.90
2017-04-11T12:39:34.506Z,99.90
2017-04-11T12:40:38.696Z,99.90
2017-04-11T12:41:42.167Z,99.90
2017-04-11T12:42:46.043Z,99.90
2017-04-11T12:43:49.773Z,99.90
2017-04-11T12:44:53.859Z,99.90
2017-04-11T12:45:57.716Z,99.90
2017-04-11T12:47:01.507Z,99.90
2017-04-11T12:48:05.509Z,99.90
2017-04-11T12:49:09.245Z,99.90
2017-04-11T12:50:13.027Z,99.90
2017-04-11T12:51:17.107Z,99.90
2017-04-11T12:52:20.730Z,99.90
2017-04-11T12:53:23.937Z,99.90
2017-04-11T12:54:27.715Z,99.90
2017-04-11T12:56:45.159Z,99.90
2017-04-11T12:57:48.989Z,99.90
2017-04-11T12:58:52.757Z,99.90
2017-04-11T12:59:56.485Z,99.90
2017-04-11T13:01:01.272Z,99.90
2017-04-11T13:02:05.045Z,99.90
2017-04-11T13:03:09.166Z,99.90
2017-04-11T13:04:12.598Z,99.90
2017-04-11T13:05:16.539Z,99.90
2017-04-11T13:06:21.336Z,99.90
2017-04-11T13:07:25.316Z,99.90
2017-04-11T13:08:29.179Z,99.90
2017-04-11T13:09:32.829Z,99.90
2017-04-11T13:10:36.383Z,99.90
2017-04-11T13:11:40.124Z,99.90
2017-04-11T13:12:43.342Z,99.90
2017-04-11T13:13:46.510Z,99.90
2017-04-11T13:14:51.373Z,99.90
2017-04-11T13:15:55.028Z,99.90
2017-04-11T13:16:58.931Z,99.90
2017-04-11T13:18:03.707Z,99.90
2017-04-11T13:19:07.201Z,99.90
2017-04-11T13:20:12.822Z,99.90
2017-04-11T13:21:17.045Z,99.90
2017-04-11T13:22:20.860Z,99.90
2017-04-11T13:23:24.709Z,99.90
2017-04-11T13:24:28.398Z,99.90
2017-04-11T13:25:32.258Z,99.90
2017-04-11T13:26:35.954Z,99.90
2017-04-11T13:27:39.861Z,99.90
2017-04-11T13:28:43.618Z,99.90
2017-04-11T13:29:47.623Z,99.90
2017-04-11T13:30:51.371Z,99.90
2017-04-11T13:31:55.311Z,99.90
2017-04-11T13:32:59.579Z,99.90
2017-04-11T13:34:03.591Z,99.90
2017-04-11T13:35:07.398Z,99.90
2017-04-11T13:36:11.114Z,99.90
2017-04-11T13:37:14.906Z,99.90
2017-04-11T13:38:18.938Z,99.90
2017-04-11T13:39:22.560Z,99.90
2017-04-11T13:40:26.912Z,99.90
2017-04-11T13:41:31.040Z,99.90
2017-04-11T13:42:34.759Z,99.90
2017-04-11T13:43:38.541Z,99.90
2017-04-11T13:44:42.454Z,99.90